Las Vegas, Nevada (DRI) Weather observations

Data are for observation ending at time listed.
 Day   Time    Ave.   Ave.  Ave.  Vector   Max.   Stn.    Total    Solar   Ave.  
  of    of     Air    Rel.  Wind   Wind    Wind   Baro.  Precip.   Rad.    Soil  
Year   Day     Temp.  Hum.  Speed  Dir.    Gust   Pres.                    Temp. 
2017   (PST)    F      %     mph   deg.    mph     mb.     in.     W/m2     F   
------------------------------------------------------------------------------
  35   21:10   56.2    52    0.0   131      0.4   945.6    0.00       0    62.1
  35   21:20   56.4    51    1.8   159      4.7   945.6    0.00       0    62.1
  35   21:30   56.2    50    3.2   175      6.1   945.6    0.00       0    62.0
  35   21:40   56.2    50    1.3   187      2.9   945.7    0.00       0    62.0
  35   21:50   56.3    51    0.0     0      0.0   945.9    0.00       0    61.9
  35   22:00   55.8    52    0.0     0      0.0   945.9    0.00       0    61.9
  35   22:10   55.9    53    0.1   248      1.1   946.0    0.00       0    61.8
  35   22:20   56.3    52    0.8   350      1.8   946.1    0.00       0    61.8
  35   22:30   56.0    52    0.1    10      1.3   946.4    0.00       0    61.7
  35   22:40   55.8    52    0.0     0      0.0   946.4    0.00       0    61.7
  35   22:50   55.1    54    0.0     0      0.0   946.4    0.00       0    61.6
  35   23:00   54.2    57    0.0     0      0.0   946.4    0.00       0    61.6
  35   23:10   54.0    56    0.2   276      2.3   946.4    0.00       0    61.5
  35   23:20   54.7    54    0.4   252      2.1   946.4    0.00       0    61.4
  35   23:30   54.8    54    1.0   350      2.9   946.4    0.00       0    61.4
  35   23:40   54.7    54    0.9     4      2.1   946.4    0.00       0    61.3
  35   23:50   54.2    55    0.2   360      1.6   946.4    0.00       0    61.2
  36    0:00   53.7    56    0.0     0      0.0   946.4    0.00       0    61.2
  36    0:10   53.9    55    0.4   358      2.2   946.4    0.00       0    61.1
  36    0:20   53.9    55    0.1   352      0.9   946.3    0.00       0    61.1
  36    0:30   53.6    56    0.0     0      0.0   946.2    0.00       0    61.0
  36    0:40   53.3    57    0.0     0      0.0   946.2    0.00       0    61.0
  36    0:50   53.1    57    0.0     1      0.7   946.3    0.00       0    60.9
  36    1:00   52.8    58    0.0     0      0.0   946.4    0.00       0    60.9
  36    1:10   52.2    60    0.0     0      0.0   946.4    0.00       0    60.8
  36    1:20   51.7    61    0.0     0      0.0   946.3    0.00       0    60.8
  36    1:30   52.0    60    0.0     0      0.0   946.3    0.00       0    60.7
  36    1:40   51.8    60    0.0     0      0.0   946.3    0.00       0    60.6
  36    1:50   51.5    61    0.0     0      0.0   946.3    0.00       0    60.6
  36    2:00   50.4    64    0.6    14      1.5   946.3    0.00       0    60.5
  36    2:10   50.5    63    0.0    17      0.7   946.3    0.00       0    60.5
  36    2:20   50.5    64    0.2    17      1.1   946.3    0.00       0    60.4
  36    2:30   50.3    64    0.0    17      0.7   946.4    0.00       0    60.4
  36    2:40   50.1    65    0.0    17      0.7   946.4    0.00       0    60.3
  36    2:50   49.5    66    0.0     0      0.0   946.3    0.00       0    60.3
  36    3:00   49.5    66    0.0     0      0.0   946.1    0.00       0    60.2
  36    3:10   49.2    67    0.0     0      0.0   946.0    0.00       0    60.1
  36    3:20   49.0    68    0.0     0      0.0   946.1    0.00       0    60.1
  36    3:30   49.1    67    0.9   142      2.3   946.0    0.00       0    60.0
  36    3:40   49.3    66    0.0   152      1.5   946.0    0.00       0    60.0
  36    3:50   48.7    67    0.0     0      0.0   945.9    0.00       0    59.9
  36    4:00   48.4    68    0.0     0      0.0   945.8    0.00       0    59.9
  36    4:10   48.5    68    0.0     0      0.0   945.9    0.00       0    59.8
  36    4:20   48.7    68    0.0     0      0.0   945.8    0.00       0    59.7
  36    4:30   48.3    69    0.0     0      0.0   945.8    0.00       0    59.7
  36    4:40   47.5    70    0.0     0      0.0   945.7    0.00       0    59.6
  36    4:50   47.0    72    0.0   152      0.2   945.7    0.00       0    59.5
  36    5:00   47.2    70    0.7   170      2.0   945.8    0.00       0    59.5
  36    5:10   47.7    69    0.4   170      1.8   945.8    0.00       0    59.4
  36    5:20   47.4    69    0.0     0      0.0   945.9    0.00       0    59.4
  36    5:30   47.0    71    0.0     0      0.0   946.0    0.00       0    59.3
  36    5:40   46.8    72    0.0     0      0.0   946.1    0.00       0    59.3
  36    5:50   46.7    73    0.0     0      0.0   946.1    0.00       0    59.2
  36    6:00   46.6    72    0.0     0      0.0   946.1    0.00       0    59.1
  36    6:10   46.6    73    0.1   166      2.2   946.3    0.00       0    59.1
  36    6:20   46.9    71    1.5   166      3.3   946.5    0.00       0    59.0
  36    6:30   47.6    69    0.8   156      2.1   946.4    0.00       2    58.9
  36    6:40   47.6    69    0.0   144      0.4   946.3    0.00       4    58.9
  36    6:50   47.2    70    0.1   126      0.9   946.4    0.00       8    58.8
  36    7:00   47.6    68    0.8   144      2.0   946.4    0.00      17    58.8
  36    7:10   47.8    67    0.8   144      2.2   946.5    0.00      18    58.7
  36    7:20   48.0    67    0.0   145      0.5   946.6    0.00      28    58.6
  36    7:30   48.2    67    0.0     0      0.0   946.7    0.00      32    58.6
  36    7:40   48.7    66    0.0     0      0.0   946.8    0.00      26    58.5
  36    7:50   49.2    66    0.0     0      0.0   947.0    0.00      29    58.4
  36    8:00   49.8    64    0.0   117      0.1   947.0    0.00      53    58.4
  36    8:10   50.9    62    0.0     0      0.0   947.2    0.00      87    58.3
  36    8:20   51.7    60    0.0   144      0.3   947.1    0.00      85    58.3
  36    8:30   52.6    58    0.1   178      2.3   947.1    0.00     104    58.2
  36    8:40   52.9    57    0.4   186      1.8   947.2    0.00      72    58.2
  36    8:50   53.3    56    0.2   186      1.7   947.2    0.00      60    58.1
  36    9:00   53.7    55    0.6    57      3.3   947.1    0.00      88    58.0
  36    9:10   53.9    55    0.4    53      3.2   947.1    0.00     399    58.0
  36    9:20   54.7    54    0.4    72      2.2   947.2    0.00     443    58.0
  36    9:30   55.3    52    0.0    91      0.6   947.2    0.00     449    57.9
  36    9:40   56.8    50    0.2    45      1.8   947.2    0.00     478    57.9
  36    9:50   56.9    50    0.7    12      2.3   947.1    0.00     485    57.9
  36   10:00   57.4    49    0.4    51      2.6   947.2    0.00     423    57.9
  36   10:10   57.3    49    1.2    33      3.2   947.1    0.00     492    57.8
  36   10:20   57.4    48    1.8    41      4.5   947.0    0.00     471    57.8
  36   10:30   57.9    48    1.1    34      3.4   946.9    0.00     455    57.8
  36   10:40   58.1    47    1.1    52      4.7   946.8    0.00     490    57.8
  36   10:50   58.9    46    1.5    35      4.2   946.6    0.00     470    57.8
  36   11:00   58.5    47    1.6    36      4.3   946.4    0.00     341    57.8
  36   11:10   58.6    46    2.0    51      4.4   946.2    0.00     435    57.8
  36   11:20   59.1    45    2.2    36      4.5   946.0    0.00     405    57.8
  36   11:30   59.0    45    2.0    44      5.3   945.8    0.00     407    57.9
  36   11:40   59.9    44    1.8    31      4.7   945.5    0.00     579    57.9
  36   11:50   60.4    43    1.6    44      3.8   945.3    0.00     599    58.0
  36   12:00   60.8    42    1.6    31      5.6   945.0    0.00     623    58.0
  36   12:10   60.7    42    2.5    34      5.8   944.7    0.00     693    58.1
  36   12:20   61.7    41    1.4    18      5.3   944.4    0.00     543    58.2
  36   12:30   61.7    40    1.7    38      4.7   944.1    0.00     529    58.2
  36   12:40   62.3    40    2.0    25      5.5   943.9    0.00     572    58.3
  36   12:50   62.4    39    1.7    44      4.1   943.6    0.00     497    58.4
  36   13:00   62.5    39    1.9    44      4.2   943.3    0.00     486    58.5
  36   13:10   62.6    39    2.2    50      5.5   943.0    0.00     416    58.6
  36   13:20   62.8    39    1.5    34      3.8   942.8    0.00     442    58.7
  36   13:30   62.8    39    2.5    50      5.4   942.7    0.00     497    58.8
  36   13:40   64.2    36    0.9   138      3.9   942.6    0.00     502    58.9
  36   13:50   64.1    36    2.0    67      5.3   942.5    0.00     445    59.0
  36   14:00   64.6    35    1.5    65      4.2   942.3    0.00     330    59.1
  36   14:10   63.2    37    1.7    42      5.0   942.1    0.00     308    59.2
  36   14:20   63.5    37    1.9    33      3.7   942.1    0.00     324    59.3
  36   14:30   63.8    36    1.8    23      4.2   942.1    0.00     317    59.4
  36   14:40   64.1    35    1.4     6      4.3   942.1    0.00     259    59.6
  36   14:50   63.8    36    1.4     6      4.2   942.1    0.00     209    59.7
  36   15:00   63.8    36    2.0    19      6.6   942.1    0.00     170    59.8
  36   15:10   63.8    36    0.9   357      3.0   942.1    0.00     152    59.9
  36   15:20   64.5    35    0.3   316      1.5   941.9    0.00     199    60.0
  36   15:30   65.0    34    0.1   220      1.2   941.9    0.00     144    60.1
  36   15:40   64.6    35    0.1    41      1.4   941.9    0.00     153    60.2
  36   15:50   64.3    35    0.5   189      2.3   941.8    0.00     106    60.3
  36   16:00   63.8    36    0.8   183      2.9   941.7    0.00      73    60.4
  36   16:10   63.9    37    0.0    60      0.9   941.7    0.00      69    60.5
  36   16:20   63.7    37    0.5    59      2.4   941.7    0.00      67    60.6
  36   16:30   63.4    37    0.4    44      1.8   941.6    0.00      64    60.6
  36   16:40   63.5    37    0.3    86      1.8   941.7    0.00      63    60.7
  36   16:50   63.2    37    0.2    60      1.6   941.6    0.00      36    60.7
  36   17:00   62.8    38    0.2    60      1.5   941.6    0.00      15    60.8
  36   17:10   62.5    39    0.0    60      0.1   941.5    0.00       6    60.8
  36   17:20   62.3    40    0.3    77     11.8   941.7    0.00       3    60.9
  36   17:30   62.0    40    0.0    45      0.7   941.7    0.00       1    60.9
  36   17:40   61.8    41    0.2    46      1.1   941.5    0.00       0    61.0
  36   17:50   61.8    40    0.1    43      1.0   941.5    0.00       0    61.0
  36   18:00   61.5    40    0.0    51      1.4   941.6    0.00       0    61.0
  36   18:10   61.5    41    0.0     0      0.0   941.7    0.00       0    61.0
  36   18:20   61.3    41    0.0   263      1.7   941.6    0.00       0    61.0
  36   18:30   61.2    42    0.0   204      0.2   941.5    0.00       0    61.0
  36   18:40   60.9    43    0.1    60      1.8   941.6    0.00       0    61.0
  36   18:50   60.4    43    0.0     0      0.0   941.6    0.00       0    61.1
  36   19:00   60.1    44    0.0     0      0.0   941.5    0.00       0    61.1
  36   19:10   60.1    43    0.2   345      1.5   941.3    0.00       0    61.1
  36   19:20   60.4    43    0.1   340      1.0   941.3    0.00       0    61.1
  36   19:30   59.9    44    0.0     0      0.0   941.3    0.00       0    61.0
  36   19:40   59.8    44    0.0     0      0.0   941.0    0.00       0    61.0
  36   19:50   59.6    46    0.4   223      2.6   941.2    0.00       0    61.0
  36   20:00   59.3    45    0.0     0      0.0   941.2    0.00       0    61.0
  36   20:10   59.5    45    0.0   220      0.6   941.2    0.00       0    61.0
  36   20:20   58.9    46    1.4   172      3.4   941.1    0.00       0    60.9
  36   20:30   59.0    47    0.6   160      2.0   940.9    0.00       0    60.9
  36   20:40   58.6    48    0.0     0      0.0   940.9    0.00       0    60.9
  36   20:50   58.3    49    0.0   150      0.9   940.9    0.00       0    60.9
  36   21:00   58.1    48    0.1   134      1.1   940.9    0.00       0    60.9

Return to Las Vegas, Nevada graphs page.


Western Regional Climate Center,wrcc@dri.edu